sensor_id;sensor_type;location;lat;lon;timestamp;temperature;humidity
3980;DHT22;2004;52.452;13.120;2023-10-13T00:05:57;14.20;99.90
3980;DHT22;2004;52.452;13.120;2023-10-13T00:13:50;14.20;99.90
3980;DHT22;2004;52.452;13.120;2023-10-13T00:21:41;14.20;99.90
3980;DHT22;2004;52.452;13.120;2023-10-13T00:29:32;14.30;99.90
3980;DHT22;2004;52.452;13.120;2023-10-13T00:37:27;14.20;99.90
3980;DHT22;2004;52.452;13.120;2023-10-13T00:45:19;14.20;99.90
3980;DHT22;2004;52.452;13.120;2023-10-13T00:53:10;14.20;99.90
3980;DHT22;2004;52.452;13.120;2023-10-13T01:01:01;14.20;99.90
3980;DHT22;2004;52.452;13.120;2023-10-13T01:09:10;14.20;99.90
3980;DHT22;2004;52.452;13.120;2023-10-13T01:17:03;14.20;99.90
3980;DHT22;2004;52.452;13.120;2023-10-13T01:24:54;14.20;99.90
3980;DHT22;2004;52.452;13.120;2023-10-13T01:32:54;14.20;99.90
3980;DHT22;2004;52.452;13.120;2023-10-13T01:40:50;14.20;99.90
3980;DHT22;2004;52.452;13.120;2023-10-13T01:48:42;14.20;99.90
3980;DHT22;2004;52.452;13.120;2023-10-13T01:56:33;14.20;99.90
3980;DHT22;2004;52.452;13.120;2023-10-13T02:04:32;14.10;99.90
3980;DHT22;2004;52.452;13.120;2023-10-13T02:12:23;14.20;99.90
3980;DHT22;2004;52.452;13.120;2023-10-13T02:20:19;14.20;99.90
3980;DHT22;2004;52.452;13.120;2023-10-13T02:28:13;14.20;99.90
3980;DHT22;2004;52.452;13.120;2023-10-13T02:36:04;14.20;99.90
3980;DHT22;2004;52.452;13.120;2023-10-13T02:43:57;14.20;99.90
3980;DHT22;2004;52.452;13.120;2023-10-13T02:51:47;14.20;99.90
3980;DHT22;2004;52.452;13.120;2023-10-13T02:59:38;14.20;99.90
3980;DHT22;2004;52.452;13.120;2023-10-13T03:07:36;14.30;99.90
3980;DHT22;2004;52.452;13.120;2023-10-13T03:15:31;14.30;99.90
3980;DHT22;2004;52.452;13.120;2023-10-13T03:23:21;14.20;99.90
3980;DHT22;2004;52.452;13.120;2023-10-13T03:31:12;14.30;99.90
3980;DHT22;2004;52.452;13.120;2023-10-13T03:39:08;14.30;99.90
3980;DHT22;2004;52.452;13.120;2023-10-13T03:47:01;14.30;99.90
3980;DHT22;2004;52.452;13.120;2023-10-13T03:55:08;14.40;99.90
3980;DHT22;2004;52.452;13.120;2023-10-13T04:03:07;14.40;99.90
3980;DHT22;2004;52.452;13.120;2023-10-13T04:11:05;14.40;99.90
3980;DHT22;2004;52.452;13.120;2023-10-13T04:19:14;14.40;99.90
3980;DHT22;2004;52.452;13.120;2023-10-13T04:27:12;14.40;99.90
3980;DHT22;2004;52.452;13.120;2023-10-13T04:35:09;14.40;99.90
3980;DHT22;2004;52.452;13.120;2023-10-13T04:43:08;14.50;99.90
3980;DHT22;2004;52.452;13.120;2023-10-13T04:51:23;14.40;99.90
3980;DHT22;2004;52.452;13.120;2023-10-13T04:59:33;14.50;99.90
3980;DHT22;2004;52.452;13.120;2023-10-13T05:07:47;14.50;99.90
3980;DHT22;2004;52.452;13.120;2023-10-13T05:15:56;14.50;99.90
3980;DHT22;2004;52.452;13.120;2023-10-13T05:24:06;14.60;99.90
3980;DHT22;2004;52.452;13.120;2023-10-13T05:32:15;14.60;99.90
3980;DHT22;2004;52.452;13.120;2023-10-13T05:40:25;14.60;99.90
3980;DHT22;2004;52.452;13.120;2023-10-13T05:48:34;14.60;99.90
3980;DHT22;2004;52.452;13.120;2023-10-13T05:56:53;14.60;99.90
3980;DHT22;2004;52.452;13.120;2023-10-13T06:05:06;14.70;99.90
3980;DHT22;2004;52.452;13.120;2023-10-13T06:13:16;14.70;99.90
3980;DHT22;2004;52.452;13.120;2023-10-13T06:21:25;14.70;99.90
3980;DHT22;2004;52.452;13.120;2023-10-13T06:29:34;14.80;99.90
3980;DHT22;2004;52.452;13.120;2023-10-13T06:37:25;14.80;99.90
3980;DHT22;2004;52.452;13.120;2023-10-13T06:45:17;14.80;99.90
3980;DHT22;2004;52.452;13.120;2023-10-13T06:53:08;14.90;99.90
3980;DHT22;2004;52.452;13.120;2023-10-13T07:01:06;14.90;99.90
3980;DHT22;2004;52.452;13.120;2023-10-13T07:08:57;15.10;99.90
3980;DHT22;2004;52.452;13.120;2023-10-13T07:17:05;15.20;99.90
3980;DHT22;2004;52.452;13.120;2023-10-13T07:24:56;15.30;99.90
3980;DHT22;2004;52.452;13.120;2023-10-13T07:32:48;15.50;99.90
3980;DHT22;2004;52.452;13.120;2023-10-13T07:40:40;15.60;99.90
3980;DHT22;2004;52.452;13.120;2023-10-13T07:48:31;15.70;99.90
3980;DHT22;2004;52.452;13.120;2023-10-13T07:56:21;15.80;99.90
3980;DHT22;2004;52.452;13.120;2023-10-13T08:04:12;15.90;99.90
3980;DHT22;2004;52.452;13.120;2023-10-13T08:12:03;16.00;99.90
3980;DHT22;2004;52.452;13.120;2023-10-13T08:19:55;16.10;99.90
3980;DHT22;2004;52.452;13.120;2023-10-13T08:27:46;16.30;99.90
3980;DHT22;2004;52.452;13.120;2023-10-13T08:35:55;16.40;99.90
3980;DHT22;2004;52.452;13.120;2023-10-13T08:44:02;16.50;99.90
3980;DHT22;2004;52.452;13.120;2023-10-13T08:51:56;16.50;99.90
3980;DHT22;2004;52.452;13.120;2023-10-13T09:00:16;16.60;99.90
3980;DHT22;2004;52.452;13.120;2023-10-13T09:08:39;16.70;99.90
3980;DHT22;2004;52.452;13.120;2023-10-13T09:17:07;16.80;99.90
3980;DHT22;2004;52.452;13.120;2023-10-13T09:25:23;16.80;99.90
3980;DHT22;2004;52.452;13.120;2023-10-13T09:41:23;16.80;99.90
3980;DHT22;2004;52.452;13.120;2023-10-13T09:49:23;16.80;99.90
3980;DHT22;2004;52.452;13.120;2023-10-13T09:57:37;16.80;99.90
3980;DHT22;2004;52.452;13.120;2023-10-13T10:05:31;17.00;99.90
3980;DHT22;2004;52.452;13.120;2023-10-13T10:13:52;17.10;99.90
3980;DHT22;2004;52.452;13.120;2023-10-13T10:21:48;17.10;99.90
3980;DHT22;2004;52.452;13.120;2023-10-13T10:29:57;17.10;99.90
3980;DHT22;2004;52.452;13.120;2023-10-13T10:37:48;17.20;99.90
3980;DHT22;2004;52.452;13.120;2023-10-13T10:45:48;17.10;99.90
3980;DHT22;2004;52.452;13.120;2023-10-13T10:53:42;17.20;99.90
3980;DHT22;2004;52.452;13.120;2023-10-13T11:01:43;17.20;99.90
3980;DHT22;2004;52.452;13.120;2023-10-13T11:09:37;17.30;99.90
3980;DHT22;2004;52.452;13.120;2023-10-13T11:17:28;17.40;99.90
3980;DHT22;2004;52.452;13.120;2023-10-13T11:25:32;17.40;99.90
3980;DHT22;2004;52.452;13.120;2023-10-13T11:33:26;17.50;99.90
3980;DHT22;2004;52.452;13.120;2023-10-13T11:41:21;17.60;99.90
3980;DHT22;2004;52.452;13.120;2023-10-13T11:49:12;17.60;99.90
3980;DHT22;2004;52.452;13.120;2023-10-13T11:57:03;17.70;99.90
3980;DHT22;2004;52.452;13.120;2023-10-13T12:04:54;17.80;99.90
3980;DHT22;2004;52.452;13.120;2023-10-13T12:12:47;18.00;99.90
3980;DHT22;2004;52.452;13.120;2023-10-13T12:20:43;18.10;99.90
3980;DHT22;2004;52.452;13.120;2023-10-13T12:28:36;18.20;99.90
3980;DHT22;2004;52.452;13.120;2023-10-13T12:36:32;18.30;99.90
3980;DHT22;2004;52.452;13.120;2023-10-13T12:44:31;18.40;99.90
3980;DHT22;2004;52.452;13.120;2023-10-13T12:52:48;18.60;99.90
3980;DHT22;2004;52.452;13.120;2023-10-13T13:00:38;18.70;99.90
3980;DHT22;2004;52.452;13.120;2023-10-13T13:08:30;18.90;99.90
3980;DHT22;2004;52.452;13.120;2023-10-13T13:16:25;19.00;99.90
3980;DHT22;2004;52.452;13.120;2023-10-13T13:24:20;19.20;99.90
3980;DHT22;2004;52.452;13.120;2023-10-13T13:32:11;19.30;99.90
3980;DHT22;2004;52.452;13.120;2023-10-13T13:40:28;19.50;99.90
3980;DHT22;2004;52.452;13.120;2023-10-13T13:48:25;19.50;99.90
3980;DHT22;2004;52.452;13.120;2023-10-13T13:56:18;19.70;99.90
3980;DHT22;2004;52.452;13.120;2023-10-13T14:04:08;19.80;99.90
3980;DHT22;2004;52.452;13.120;2023-10-13T14:11:59;19.90;99.90
3980;DHT22;2004;52.452;13.120;2023-10-13T14:20:08;19.90;99.90
3980;DHT22;2004;52.452;13.120;2023-10-13T14:28:08;19.90;99.90
3980;DHT22;2004;52.452;13.120;2023-10-13T14:36:01;20.00;99.90
3980;DHT22;2004;52.452;13.120;2023-10-13T14:43:56;20.00;99.90
3980;DHT22;2004;52.452;13.120;2023-10-13T14:51:55;20.00;99.90
3980;DHT22;2004;52.452;13.120;2023-10-13T14:59:45;20.00;99.90
3980;DHT22;2004;52.452;13.120;2023-10-13T15:07:36;20.10;99.90
3980;DHT22;2004;52.452;13.120;2023-10-13T15:15:27;20.00;99.90
3980;DHT22;2004;52.452;13.120;2023-10-13T15:23:20;20.00;99.90
3980;DHT22;2004;52.452;13.120;2023-10-13T15:31:14;20.00;99.90
3980;DHT22;2004;52.452;13.120;2023-10-13T15:39:27;20.00;99.90
3980;DHT22;2004;52.452;13.120;2023-10-13T15:47:18;20.00;99.90
3980;DHT22;2004;52.452;13.120;2023-10-13T15:55:09;20.00;99.90
3980;DHT22;2004;52.452;13.120;2023-10-13T16:03:04;19.90;99.90
3980;DHT22;2004;52.452;13.120;2023-10-13T16:11:05;19.90;99.90
3980;DHT22;2004;52.452;13.120;2023-10-13T16:18:57;19.90;99.90
3980;DHT22;2004;52.452;13.120;2023-10-13T16:26:49;19.90;99.90
3980;DHT22;2004;52.452;13.120;2023-10-13T16:34:40;19.90;99.90
3980;DHT22;2004;52.452;13.120;2023-10-13T16:42:34;19.90;99.90
3980;DHT22;2004;52.452;13.120;2023-10-13T16:50:24;19.90;99.90
3980;DHT22;2004;52.452;13.120;2023-10-13T16:58:17;20.00;99.90
3980;DHT22;2004;52.452;13.120;2023-10-13T17:06:08;20.00;99.90
3980;DHT22;2004;52.452;13.120;2023-10-13T17:13:58;20.00;99.90
3980;DHT22;2004;52.452;13.120;2023-10-13T17:21:49;20.10;99.90
3980;DHT22;2004;52.452;13.120;2023-10-13T17:29:40;20.10;99.90
3980;DHT22;2004;52.452;13.120;2023-10-13T17:37:32;20.10;99.90
3980;DHT22;2004;52.452;13.120;2023-10-13T17:45:24;20.10;99.90
3980;DHT22;2004;52.452;13.120;2023-10-13T17:53:15;20.20;99.90
3980;DHT22;2004;52.452;13.120;2023-10-13T18:01:05;20.30;99.90
3980;DHT22;2004;52.452;13.120;2023-10-13T18:08:59;20.30;99.90
3980;DHT22;2004;52.452;13.120;2023-10-13T18:16:50;20.30;99.90
3980;DHT22;2004;52.452;13.120;2023-10-13T18:24:44;20.30;99.90
3980;DHT22;2004;52.452;13.120;2023-10-13T18:32:34;20.30;99.90
3980;DHT22;2004;52.452;13.120;2023-10-13T18:40:26;20.30;99.90
3980;DHT22;2004;52.452;13.120;2023-10-13T18:48:19;20.30;99.90
3980;DHT22;2004;52.452;13.120;2023-10-13T18:56:21;20.30;99.90
3980;DHT22;2004;52.452;13.120;2023-10-13T19:04:13;20.40;99.90
3980;DHT22;2004;52.452;13.120;2023-10-13T19:12:05;20.30;99.90
3980;DHT22;2004;52.452;13.120;2023-10-13T19:19:58;20.30;99.90
3980;DHT22;2004;52.452;13.120;2023-10-13T19:27:49;20.30;99.90
3980;DHT22;2004;52.452;13.120;2023-10-13T19:35:40;20.30;99.90
3980;DHT22;2004;52.452;13.120;2023-10-13T19:43:31;20.30;99.90
3980;DHT22;2004;52.452;13.120;2023-10-13T19:51:22;20.30;99.90
3980;DHT22;2004;52.452;13.120;2023-10-13T19:59:16;20.30;99.90
3980;DHT22;2004;52.452;13.120;2023-10-13T20:07:09;20.30;99.90
3980;DHT22;2004;52.452;13.120;2023-10-13T20:14:59;20.30;99.90
3980;DHT22;2004;52.452;13.120;2023-10-13T20:22:50;20.30;99.90
3980;DHT22;2004;52.452;13.120;2023-10-13T20:30:41;20.30;99.90
3980;DHT22;2004;52.452;13.120;2023-10-13T20:38:32;20.30;99.90
3980;DHT22;2004;52.452;13.120;2023-10-13T20:46:23;20.30;99.90
3980;DHT22;2004;52.452;13.120;2023-10-13T20:54:14;20.30;99.90
3980;DHT22;2004;52.452;13.120;2023-10-13T21:02:05;20.30;99.90
3980;DHT22;2004;52.452;13.120;2023-10-13T21:09:56;20.30;99.90
3980;DHT22;2004;52.452;13.120;2023-10-13T21:17:49;20.20;99.90
3980;DHT22;2004;52.452;13.120;2023-10-13T21:25:39;20.20;99.90
3980;DHT22;2004;52.452;13.120;2023-10-13T21:33:31;20.10;99.90
3980;DHT22;2004;52.452;13.120;2023-10-13T21:41:22;20.10;99.90
3980;DHT22;2004;52.452;13.120;2023-10-13T21:49:13;20.00;99.90
3980;DHT22;2004;52.452;13.120;2023-10-13T21:57:03;20.00;99.90
3980;DHT22;2004;52.452;13.120;2023-10-13T22:04:55;19.90;99.90
3980;DHT22;2004;52.452;13.120;2023-10-13T22:12:47;19.80;99.90
3980;DHT22;2004;52.452;13.120;2023-10-13T22:20:37;19.80;99.90
3980;DHT22;2004;52.452;13.120;2023-10-13T22:28:28;19.70;99.90
3980;DHT22;2004;52.452;13.120;2023-10-13T22:36:20;19.70;99.90
3980;DHT22;2004;52.452;13.120;2023-10-13T22:44:14;19.70;99.90
3980;DHT22;2004;52.452;13.120;2023-10-13T22:52:09;19.60;99.90
3980;DHT22;2004;52.452;13.120;2023-10-13T22:59:59;19.70;99.90
3980;DHT22;2004;52.452;13.120;2023-10-13T23:07:50;19.60;99.90
3980;DHT22;2004;52.452;13.120;2023-10-13T23:15:51;19.60;99.90
3980;DHT22;2004;52.452;13.120;2023-10-13T23:23:43;19.50;99.90
3980;DHT22;2004;52.452;13.120;2023-10-13T23:31:43;19.40;99.90
3980;DHT22;2004;52.452;13.120;2023-10-13T23:39:36;19.30;99.90
3980;DHT22;2004;52.452;13.120;2023-10-13T23:47:27;19.10;99.90
3980;DHT22;2004;52.452;13.120;2023-10-13T23:55:18;19.10;99.90
